Time;durP1;ratioP1;P1;durP2;ratioP2;P2;SDS_P1;SDS_P2;PMS_P1;PMS_P2;Temp;Humidity;BMP_temperature;BMP_pressure;BME280_temperature;BME280_humidity;BME280_pressure;Samples;Min_cycle;Max_cycle;Signal;HPM_P1;HPM_P2
2024/03/31 00:00:26;;;;;;;19.33;7.17;;;10.10;98.00;;;;;;5031365;28;20871;-65
2024/03/31 00:02:53;;;;;;;19.00;7.03;;;10.00;98.00;;;;;;5031739;28;20457;-65
2024/03/31 00:05:22;;;;;;;22.80;8.03;;;10.00;98.00;;;;;;5031522;28;20539;-65
2024/03/31 00:07:48;;;;;;;21.10;6.37;;;10.00;98.00;;;;;;5031512;28;20490;-65
2024/03/31 00:10:16;;;;;;;20.73;6.70;;;10.00;98.00;;;;;;5030652;28;20457;-65
2024/03/31 00:12:46;;;;;;;20.87;6.60;;;10.00;98.00;;;;;;5031723;28;20820;-65
2024/03/31 00:15:13;;;;;;;19.93;6.70;;;9.90;98.00;;;;;;5030276;28;20479;-65
2024/03/31 00:17:40;;;;;;;28.90;7.30;;;9.90;98.00;;;;;;5031356;28;20467;-65
2024/03/31 00:20:06;;;;;;;25.10;7.43;;;9.90;98.00;;;;;;5031348;28;20485;-65
2024/03/31 00:22:34;;;;;;;31.60;7.00;;;9.90;98.00;;;;;;5031288;28;20494;-65
2024/03/31 00:25:01;;;;;;;22.77;6.70;;;9.90;98.00;;;;;;5031555;28;20465;-65
2024/03/31 00:27:28;;;;;;;28.00;7.27;;;9.80;98.00;;;;;;5031527;28;20498;-65
2024/03/31 00:29:56;;;;;;;23.50;6.83;;;9.80;98.00;;;;;;5030091;28;20463;-65
2024/03/31 00:32:31;;;;;;;18.43;6.70;;;9.70;98.00;;;;;;5031503;28;20505;-65
2024/03/31 00:34:57;;;;;;;21.07;6.60;;;9.70;98.00;;;;;;5030517;28;21166;-65
2024/03/31 00:37:25;;;;;;;17.13;6.33;;;9.80;98.00;;;;;;5034550;28;20462;-65
2024/03/31 00:39:51;;;;;;;18.70;6.63;;;9.90;98.00;;;;;;5035192;28;20463;-65
2024/03/31 00:42:19;;;;;;;16.10;6.37;;;9.80;98.00;;;;;;5035205;28;20463;-65
2024/03/31 00:44:45;;;;;;;21.47;6.70;;;9.80;98.00;;;;;;5033935;28;20455;-65
2024/03/31 00:47:14;;;;;;;16.23;5.93;;;9.90;98.00;;;;;;5035097;28;20522;-65
2024/03/31 00:49:40;;;;;;;18.83;6.67;;;10.00;98.00;;;;;;5035023;28;20841;-65
2024/03/31 00:52:07;;;;;;;23.37;7.03;;;10.40;98.00;;;;;;5033910;28;20541;-65
2024/03/31 00:54:41;;;;;;;23.80;6.73;;;10.40;98.00;;;;;;5034349;28;21091;-65
2024/03/31 00:57:08;;;;;;;25.40;7.20;;;10.40;98.00;;;;;;5034644;28;20471;-65
2024/03/31 00:59:34;;;;;;;17.00;7.40;;;10.40;98.00;;;;;;5034699;28;20477;-65
2024/03/31 01:02:02;;;;;;;28.90;7.10;;;10.30;98.00;;;;;;5034947;28;20469;-65
2024/03/31 01:04:31;;;;;;;20.27;6.90;;;10.30;98.00;;;;;;5034822;28;20451;-65
2024/03/31 01:06:58;;;;;;;26.17;7.20;;;10.50;98.00;;;;;;5034806;28;20495;-65
2024/03/31 01:09:25;;;;;;;17.33;6.70;;;10.40;98.00;;;;;;5034830;28;20444;-65
2024/03/31 01:11:52;;;;;;;20.43;6.47;;;10.30;98.00;;;;;;5033657;28;20474;-65
2024/03/31 01:14:19;;;;;;;43.40;6.90;;;10.10;98.00;;;;;;5034756;28;20464;-65
2024/03/31 01:16:46;;;;;;;18.20;6.63;;;10.00;98.00;;;;;;5034694;28;20505;-65
2024/03/31 01:19:12;;;;;;;27.17;6.67;;;9.90;98.00;;;;;;5034375;28;20465;-65
2024/03/31 01:21:42;;;;;;;28.90;7.00;;;10.00;98.00;;;;;;5032920;28;20936;-65
2024/03/31 01:24:11;;;;;;;21.37;6.33;;;10.00;98.00;;;;;;5033201;28;20465;-65
2024/03/31 01:26:38;;;;;;;15.97;6.13;;;9.90;98.00;;;;;;5034104;28;20497;-65
2024/03/31 01:29:04;;;;;;;26.37;5.97;;;9.90;98.00;;;;;;5034133;28;20988;-65
2024/03/31 01:31:31;;;;;;;21.33;6.00;;;10.00;98.00;;;;;;5034093;28;20462;-65
2024/03/31 01:33:58;;;;;;;20.63;5.47;;;10.00;98.00;;;;;;5032916;28;20478;-65
2024/03/31 01:36:25;;;;;;;19.03;7.00;;;10.10;98.00;;;;;;5033986;28;20468;-65
2024/03/31 01:38:51;;;;;;;19.47;6.27;;;10.20;98.00;;;;;;5032797;28;20460;-65
2024/03/31 01:41:19;;;;;;;16.87;6.27;;;10.40;98.00;;;;;;5031746;28;20459;-65
2024/03/31 01:43:47;;;;;;;18.47;5.30;;;10.50;98.00;;;;;;5033665;28;20463;-65
2024/03/31 01:46:14;;;;;;;13.80;5.23;;;10.60;98.00;;;;;;5033795;28;20584;-65
2024/03/31 01:48:40;;;;;;;20.90;6.80;;;10.60;98.00;;;;;;5033618;28;20975;-65
2024/03/31 01:51:07;;;;;;;21.67;5.80;;;10.50;98.00;;;;;;5033941;28;20885;-65
2024/03/31 01:53:33;;;;;;;15.17;5.20;;;10.40;98.00;;;;;;5032431;28;20481;-65
2024/03/31 01:56:00;;;;;;;12.80;5.07;;;10.30;98.00;;;;;;5032489;28;20844;-65
2024/03/31 01:58:28;;;;;;;20.30;5.47;;;10.40;98.00;;;;;;5033654;28;21087;-65
2024/03/31 02:00:55;;;;;;;23.80;5.60;;;10.40;98.00;;;;;;5033820;28;21014;-65
2024/03/31 02:03:21;;;;;;;23.73;6.30;;;10.30;98.00;;;;;;5033485;28;20465;-65
2024/03/31 02:05:48;;;;;;;18.87;5.87;;;10.10;98.00;;;;;;5033481;28;20610;-65
2024/03/31 02:08:14;;;;;;;18.63;5.57;;;10.10;98.00;;;;;;5033555;28;20463;-65
2024/03/31 02:10:42;;;;;;;20.40;5.70;;;10.10;98.00;;;;;;5032218;28;20459;-65
2024/03/31 02:13:09;;;;;;;22.80;5.67;;;10.20;98.00;;;;;;5032282;28;20457;-65
2024/03/31 02:15:38;;;;;;;27.17;5.80;;;10.30;98.00;;;;;;5032097;28;20555;-65
2024/03/31 02:18:06;;;;;;;13.37;4.97;;;10.30;98.00;;;;;;5033436;28;20513;-66
2024/03/31 02:20:33;;;;;;;16.03;5.47;;;10.20;98.00;;;;;;5033319;28;20504;-65
2024/03/31 02:22:59;;;;;;;18.80;6.37;;;10.10;98.00;;;;;;5033378;28;20451;-65
2024/03/31 02:25:26;;;;;;;17.63;5.67;;;10.00;98.00;;;;;;5033284;28;20914;-65
2024/03/31 02:27:52;;;;;;;22.20;5.60;;;9.90;98.00;;;;;;5033205;28;20481;-65
2024/03/31 02:30:19;;;;;;;16.77;5.37;;;9.70;98.00;;;;;;5032039;28;20496;-66
2024/03/31 02:32:48;;;;;;;19.50;5.70;;;9.50;98.00;;;;;;5033093;28;20458;-65
2024/03/31 02:35:15;;;;;;;25.20;5.70;;;9.50;98.00;;;;;;5031751;28;20478;-65
2024/03/31 02:37:42;;;;;;;21.43;5.53;;;9.60;98.00;;;;;;5033155;28;20489;-65
2024/03/31 02:40:09;;;;;;;12.90;5.00;;;9.60;98.00;;;;;;5033265;28;20459;-65
2024/03/31 02:42:36;;;;;;;12.53;5.47;;;9.60;98.00;;;;;;5033110;28;21023;-65
2024/03/31 02:45:04;;;;;;;11.10;5.00;;;9.40;98.00;;;;;;5033016;28;20464;-65
2024/03/31 02:47:30;;;;;;;21.87;5.83;;;9.40;98.00;;;;;;5032870;28;20539;-65
2024/03/31 02:49:59;;;;;;;20.30;5.07;;;9.40;98.00;;;;;;5031987;28;20518;-65
2024/03/31 02:52:25;;;;;;;15.87;5.50;;;9.40;98.00;;;;;;5031628;28;20443;-65
2024/03/31 02:54:52;;;;;;;14.33;5.40;;;9.40;98.00;;;;;;5031643;28;20452;-65
2024/03/31 02:57:19;;;;;;;11.57;5.40;;;9.30;98.00;;;;;;5031827;28;20768;-66
2024/03/31 02:59:46;;;;;;;15.10;5.57;;;9.40;98.00;;;;;;5031055;28;20470;-65
2024/03/31 03:02:13;;;;;;;14.73;4.33;;;9.40;98.00;;;;;;5032857;28;20474;-65
2024/03/31 03:04:40;;;;;;;16.33;5.00;;;9.40;98.00;;;;;;5031354;28;20958;-65
2024/03/31 03:07:07;;;;;;;13.70;5.33;;;9.50;98.00;;;;;;5032377;28;20498;-65
2024/03/31 03:09:36;;;;;;;19.33;4.83;;;9.60;98.00;;;;;;5032213;28;20459;-65
2024/03/31 03:12:02;;;;;;;15.53;5.00;;;9.60;98.00;;;;;;5032170;28;20459;-65
2024/03/31 03:14:29;;;;;;;23.40;4.83;;;9.60;98.00;;;;;;5032342;28;20471;-65
2024/03/31 03:16:55;;;;;;;15.20;5.00;;;9.50;98.00;;;;;;5032156;28;20976;-65
2024/03/31 03:19:22;;;;;;;19.80;4.40;;;9.50;98.00;;;;;;5030845;28;20518;-65
2024/03/31 03:21:51;;;;;;;19.23;4.67;;;9.40;98.00;;;;;;5030539;28;20455;-65
2024/03/31 03:24:19;;;;;;;12.80;4.53;;;9.40;98.00;;;;;;5031924;28;20999;-65
2024/03/31 03:26:46;;;;;;;19.80;4.90;;;9.40;98.00;;;;;;5032032;28;20488;-65
2024/03/31 03:29:13;;;;;;;17.70;4.70;;;9.20;98.00;;;;;;5031820;28;20474;-65
2024/03/31 03:31:39;;;;;;;26.37;5.17;;;8.90;98.00;;;;;;5031762;28;20480;-65
2024/03/31 03:34:06;;;;;;;13.17;4.57;;;8.90;98.00;;;;;;5030675;28;20470;-65
2024/03/31 03:36:33;;;;;;;23.90;4.33;;;8.90;98.00;;;;;;5031787;28;20466;-65
2024/03/31 03:39:00;;;;;;;14.10;5.00;;;8.80;98.00;;;;;;5030601;28;20466;-65
2024/03/31 03:41:50;;;;;;;13.50;4.73;;;8.90;98.00;;;;;;5032018;28;20855;-65
2024/03/31 03:44:17;;;;;;;7.80;3.90;;;8.70;98.00;;;;;;5031707;28;20940;-65
2024/03/31 03:46:44;;;;;;;14.90;4.20;;;8.50;98.00;;;;;;5031694;28;20878;-65
2024/03/31 03:49:11;;;;;;;14.13;4.73;;;8.50;98.00;;;;;;5030646;28;20478;-65
2024/03/31 03:51:38;;;;;;;15.97;3.70;;;8.50;98.00;;;;;;5030559;28;20461;-65
2024/03/31 03:54:06;;;;;;;13.83;4.33;;;8.50;98.00;;;;;;5031725;28;20952;-65
2024/03/31 03:56:32;;;;;;;12.97;3.67;;;8.50;98.00;;;;;;5031349;28;20512;-65
2024/03/31 03:59:00;;;;;;;13.67;4.20;;;8.40;98.00;;;;;;5029589;28;20884;-65
2024/03/31 04:01:26;;;;;;;22.63;4.43;;;8.30;98.00;;;;;;5031066;28;20455;-65
2024/03/31 04:03:56;;;;;;;14.17;4.10;;;8.30;98.00;;;;;;5031607;28;20943;-65
2024/03/31 04:06:22;;;;;;;21.80;4.93;;;8.30;98.00;;;;;;5030443;28;20493;-65
2024/03/31 04:08:50;;;;;;;17.40;4.10;;;8.40;98.00;;;;;;5031250;28;20570;-65
2024/03/31 04:11:20;;;;;;;16.43;3.90;;;8.50;98.00;;;;;;5033537;28;20458;-65
2024/03/31 04:13:49;;;;;;;11.37;4.23;;;8.40;98.00;;;;;;5035681;28;20462;-65
2024/03/31 04:16:19;;;;;;;12.93;3.70;;;8.40;98.00;;;;;;5035784;28;20777;-65
2024/03/31 04:18:51;;;;;;;12.00;4.10;;;8.50;98.00;;;;;;5035543;28;20470;-65
2024/03/31 04:21:17;;;;;;;12.23;3.80;;;8.60;98.00;;;;;;5035594;28;20456;-65
2024/03/31 04:23:46;;;;;;;9.87;3.80;;;8.50;98.00;;;;;;5034235;28;20455;-65
2024/03/31 04:26:12;;;;;;;9.27;3.83;;;8.50;98.00;;;;;;5035545;28;20888;-65
2024/03/31 04:28:39;;;;;;;9.47;3.83;;;8.70;98.00;;;;;;5035100;28;20951;-65
2024/03/31 04:31:06;;;;;;;20.53;3.73;;;8.50;98.00;;;;;;5035532;28;20454;-65
2024/03/31 04:33:34;;;;;;;14.17;3.93;;;8.40;98.00;;;;;;5035361;28;20463;-65
2024/03/31 04:36:01;;;;;;;13.53;4.33;;;8.20;98.00;;;;;;5035562;28;20455;-65
2024/03/31 04:38:28;;;;;;;13.60;4.50;;;8.00;98.00;;;;;;5034222;28;20469;-65
2024/03/31 04:40:55;;;;;;;17.83;4.70;;;7.90;98.00;;;;;;5035369;28;20456;-65
2024/03/31 04:43:22;;;;;;;8.93;3.77;;;8.00;98.00;;;;;;5035544;28;20460;-65
2024/03/31 04:46:14;;;;;;;10.93;4.00;;;8.10;98.00;;;;;;5035380;28;20506;-65
2024/03/31 04:48:43;;;;;;;13.03;4.03;;;8.10;98.00;;;;;;5035356;28;20459;-65
2024/03/31 04:51:09;;;;;;;10.33;4.30;;;8.00;98.00;;;;;;5035058;28;20834;-65
2024/03/31 04:53:37;;;;;;;19.80;4.50;;;7.90;98.00;;;;;;5034907;28;20830;-65
2024/03/31 04:56:04;;;;;;;13.33;3.90;;;7.90;98.00;;;;;;5035060;28;20446;-65
2024/03/31 04:58:33;;;;;;;17.93;4.83;;;7.70;98.00;;;;;;5034504;28;20553;-65
2024/03/31 05:01:00;;;;;;;12.83;4.00;;;7.60;98.00;;;;;;5034794;28;20447;-65
2024/03/31 05:03:27;;;;;;;16.10;4.30;;;7.50;98.00;;;;;;5034823;28;20971;-65
2024/03/31 05:05:55;;;;;;;16.90;4.57;;;7.60;98.00;;;;;;5034561;28;20471;-65
2024/03/31 05:08:21;;;;;;;12.77;4.13;;;7.50;98.00;;;;;;5034722;28;20459;-65
2024/03/31 05:10:59;;;;;;;13.40;4.20;;;7.50;98.00;;;;;;5033145;28;20883;-65
2024/03/31 05:13:27;;;;;;;16.90;4.40;;;7.40;98.00;;;;;;5034588;28;20481;-65
2024/03/31 05:15:59;;;;;;;19.53;4.73;;;7.50;98.00;;;;;;5034333;28;20458;-65
2024/03/31 05:18:25;;;;;;;8.37;3.93;;;7.70;98.00;;;;;;5034488;28;20454;-65
2024/03/31 05:20:59;;;;;;;17.27;4.77;;;7.70;98.00;;;;;;5034259;28;20478;-65
2024/03/31 05:23:26;;;;;;;10.30;4.27;;;7.60;98.00;;;;;;5033836;28;20450;-65
2024/03/31 05:25:55;;;;;;;14.40;4.70;;;7.80;98.00;;;;;;5034231;28;20471;-67
2024/03/31 05:28:22;;;;;;;13.83;4.43;;;7.80;98.00;;;;;;5034119;28;20965;-67
2024/03/31 05:30:50;;;;;;;11.73;4.53;;;7.70;98.00;;;;;;5034095;28;20468;-67
2024/03/31 05:33:17;;;;;;;11.73;4.10;;;7.60;98.00;;;;;;5034092;28;20464;-65
2024/03/31 05:35:46;;;;;;;15.37;4.47;;;7.60;98.00;;;;;;5033954;28;20967;-65
2024/03/31 05:38:15;;;;;;;11.13;4.87;;;7.70;98.00;;;;;;5034221;28;20958;-65
2024/03/31 05:40:44;;;;;;;10.27;4.33;;;7.80;98.00;;;;;;5034051;28;20520;-65
2024/03/31 05:43:12;;;;;;;18.23;4.70;;;8.00;98.00;;;;;;5034126;28;20527;-65
2024/03/31 05:45:41;;;;;;;16.77;4.27;;;7.90;98.00;;;;;;5033991;28;20463;-65
2024/03/31 05:48:09;;;;;;;11.90;4.80;;;7.90;98.00;;;;;;5034013;28;21014;-65
2024/03/31 05:50:38;;;;;;;11.70;4.40;;;8.00;98.00;;;;;;5034014;28;20798;-65
2024/03/31 05:53:05;;;;;;;14.83;4.37;;;8.10;98.00;;;;;;5032806;28;20461;-65
2024/03/31 05:55:33;;;;;;;20.27;5.23;;;8.20;98.00;;;;;;5033594;28;20468;-65
2024/03/31 05:58:00;;;;;;;8.20;3.90;;;8.30;98.00;;;;;;5033935;28;20864;-65
2024/03/31 06:00:33;;;;;;;23.47;5.60;;;8.30;98.00;;;;;;5033852;28;20475;-65
2024/03/31 06:02:59;;;;;;;8.03;4.43;;;8.30;98.00;;;;;;5031761;28;20460;-65
2024/03/31 06:05:28;;;;;;;11.57;4.73;;;8.30;98.00;;;;;;5032761;28;21041;-65
2024/03/31 06:07:54;;;;;;;23.07;5.00;;;8.30;98.00;;;;;;5015087;28;20580;-65
2024/03/31 06:10:21;;;;;;;10.10;4.83;;;8.50;98.00;;;;;;5032781;28;20542;-65
2024/03/31 06:12:49;;;;;;;22.87;6.43;;;8.70;98.00;;;;;;5033433;28;20955;-65
2024/03/31 06:15:16;;;;;;;14.07;5.53;;;8.80;98.00;;;;;;5033671;28;20507;-65
2024/03/31 06:17:43;;;;;;;25.07;5.53;;;8.70;98.00;;;;;;5033561;28;20855;-65
2024/03/31 06:20:11;;;;;;;16.53;4.97;;;8.50;98.00;;;;;;5033648;28;20469;-65
2024/03/31 06:22:39;;;;;;;10.40;4.60;;;8.60;98.00;;;;;;5033680;28;20962;-65
2024/03/31 06:25:06;;;;;;;12.93;4.90;;;8.40;98.00;;;;;;5033614;28;20555;-65
2024/03/31 06:27:34;;;;;;;16.77;5.70;;;8.30;98.00;;;;;;5033311;28;20640;-65
2024/03/31 06:30:04;;;;;;;13.43;5.40;;;8.40;98.00;;;;;;5033290;28;20992;-65
2024/03/31 06:32:30;;;;;;;11.73;5.00;;;8.20;98.00;;;;;;5033522;28;20457;-65
2024/03/31 06:34:57;;;;;;;19.83;5.97;;;8.20;98.00;;;;;;5031721;28;20469;-65
2024/03/31 06:37:23;;;;;;;13.77;5.03;;;8.20;98.00;;;;;;5033037;28;20464;-65
2024/03/31 06:39:50;;;;;;;13.43;4.83;;;8.30;98.00;;;;;;5031595;28;20828;-65
2024/03/31 06:42:17;;;;;;;15.47;5.30;;;8.30;98.00;;;;;;5033002;28;20456;-65
2024/03/31 06:44:45;;;;;;;12.90;4.73;;;8.30;98.00;;;;;;5031432;28;20473;-65
2024/03/31 06:47:12;;;;;;;15.83;5.40;;;8.30;98.00;;;;;;5032854;28;20487;-65
2024/03/31 06:49:40;;;;;;;8.17;4.90;;;8.40;98.00;;;;;;5032848;28;20538;-65
2024/03/31 06:52:06;;;;;;;13.93;5.43;;;8.70;98.00;;;;;;5032147;28;20951;-65
2024/03/31 06:54:33;;;;;;;20.70;5.30;;;8.70;98.00;;;;;;5032717;28;20473;-65
2024/03/31 06:56:59;;;;;;;11.87;5.00;;;8.90;98.00;;;;;;5032420;28;20460;-65
2024/03/31 06:59:26;;;;;;;10.83;4.60;;;9.10;98.00;;;;;;5032263;28;20515;-62
2024/03/31 07:01:52;;;;;;;16.70;5.00;;;9.20;98.00;;;;;;5032481;28;20461;-62
2024/03/31 07:04:21;;;;;;;21.43;5.53;;;9.30;98.00;;;;;;5032423;28;20963;-62
2024/03/31 07:06:49;;;;;;;14.53;5.40;;;9.40;98.00;;;;;;5032270;28;20483;-63
2024/03/31 07:09:16;;;;;;;19.27;5.83;;;9.40;98.00;;;;;;5032461;28;20973;-63
2024/03/31 07:11:43;;;;;;;12.60;4.63;;;9.60;98.00;;;;;;5032529;28;20494;-63
2024/03/31 07:14:10;;;;;;;23.77;5.50;;;9.70;98.00;;;;;;5032344;28;20475;-62
2024/03/31 07:16:37;;;;;;;20.00;5.60;;;9.80;98.00;;;;;;5032145;28;20963;-62
2024/03/31 07:19:03;;;;;;;15.57;5.27;;;9.90;98.00;;;;;;5031171;28;21067;-62
2024/03/31 07:21:32;;;;;;;23.67;5.63;;;9.90;98.00;;;;;;5031818;28;20849;-62
2024/03/31 07:23:58;;;;;;;15.53;4.80;;;9.90;98.00;;;;;;5031069;28;20457;-62
2024/03/31 07:26:26;;;;;;;18.00;5.53;;;9.70;98.00;;;;;;5032011;28;20517;-62
2024/03/31 07:28:54;;;;;;;20.27;5.50;;;9.60;98.00;;;;;;5032113;28;20457;-62
2024/03/31 07:31:21;;;;;;;18.63;5.70;;;9.60;98.00;;;;;;5032167;28;20991;-62
2024/03/31 07:33:47;;;;;;;12.40;5.20;;;9.70;98.00;;;;;;5032157;28;20459;-62
2024/03/31 07:36:15;;;;;;;14.60;4.47;;;9.80;98.00;;;;;;5032061;28;20986;-62
2024/03/31 07:38:42;;;;;;;17.60;6.03;;;10.10;98.00;;;;;;5029997;28;20443;-62
2024/03/31 07:41:09;;;;;;;25.27;5.33;;;10.20;98.00;;;;;;5030825;28;20474;-64
2024/03/31 07:43:37;;;;;;;7.87;3.27;;;10.30;98.00;;;;;;5032056;28;20457;-62
2024/03/31 07:46:04;;;;;;;10.83;3.90;;;11.10;98.00;;;;;;5031433;28;20464;-62
2024/03/31 07:48:30;;;;;;;11.80;4.87;;;12.20;98.00;;;;;;5028568;28;20496;-62
2024/03/31 07:53:40;;;;;;;12.40;4.53;;;13.00;98.00;;;;;;5030744;28;20474;-62
2024/03/31 07:56:08;;;;;;;15.70;5.77;;;12.80;98.00;;;;;;5031300;28;20458;-62
2024/03/31 08:01:03;;;;;;;13.20;5.70;;;12.60;98.00;;;;;;5010329;28;20473;-62
2024/03/31 08:03:29;;;;;;;15.33;4.80;;;12.60;98.00;;;;;;5012169;28;20462;-62
2024/03/31 08:05:57;;;;;;;9.63;3.87;;;12.60;98.00;;;;;;5012278;28;20466;-62
2024/03/31 08:08:23;;;;;;;12.23;4.00;;;12.80;98.00;;;;;;5012191;28;20492;-62
2024/03/31 08:10:50;;;;;;;11.33;4.30;;;12.80;98.00;;;;;;5012028;28;20525;-62
2024/03/31 08:13:17;;;;;;;13.00;3.60;;;12.80;98.00;;;;;;5012360;28;20895;-62
2024/03/31 08:15:45;;;;;;;13.57;4.00;;;12.90;98.00;;;;;;5012267;28;20534;-62
2024/03/31 08:18:12;;;;;;;20.83;4.20;;;13.00;98.00;;;;;;5012184;28;20857;-62
2024/03/31 08:20:40;;;;;;;16.03;3.40;;;13.00;98.00;;;;;;5011840;28;20542;-62
2024/03/31 08:23:06;;;;;;;16.93;3.50;;;13.10;98.00;;;;;;5012061;28;20466;-62
2024/03/31 08:25:37;;;;;;;11.03;3.90;;;13.30;98.00;;;;;;5011952;28;21193;-62
2024/03/31 08:28:03;;;;;;;19.90;4.30;;;13.60;98.00;;;;;;5011780;28;20841;-62
2024/03/31 08:30:32;;;;;;;12.80;3.33;;;13.70;98.00;;;;;;5011339;28;20883;-62
2024/03/31 08:32:58;;;;;;;10.17;4.00;;;13.80;98.00;;;;;;5011579;28;20458;-63
2024/03/31 08:35:26;;;;;;;6.87;3.30;;;14.00;98.00;;;;;;5010831;28;20551;-62
2024/03/31 08:37:52;;;;;;;11.20;3.53;;;14.10;98.00;;;;;;5011128;28;20475;-62
2024/03/31 08:40:19;;;;;;;14.50;3.07;;;14.20;98.00;;;;;;5011699;28;20557;-63
2024/03/31 08:42:55;;;;;;;12.07;3.70;;;14.40;98.00;;;;;;5011892;28;20558;-62
2024/03/31 08:45:23;;;;;;;20.30;3.33;;;14.50;98.00;;;;;;5011699;28;20466;-63
2024/03/31 08:47:56;;;;;;;9.50;3.00;;;14.60;98.00;;;;;;5011517;28;20490;-63
2024/03/31 08:50:24;;;;;;;20.13;6.00;;;14.70;98.00;;;;;;5011325;28;20549;-63
2024/03/31 08:52:50;;;;;;;13.40;3.50;;;14.90;98.00;;;;;;5011504;28;20459;-63
2024/03/31 08:55:17;;;;;;;12.77;2.80;;;15.10;98.00;;;;;;5011621;28;20522;-63
2024/03/31 08:57:44;;;;;;;17.10;3.30;;;15.20;98.00;;;;;;5013470;28;20539;-63
2024/03/31 09:00:12;;;;;;;13.33;3.60;;;15.40;98.00;;;;;;5014993;28;20475;-63
2024/03/31 09:02:38;;;;;;;12.43;2.97;;;15.50;98.00;;;;;;5014972;28;20443;-63
2024/03/31 09:05:08;;;;;;;14.67;3.50;;;15.60;98.00;;;;;;5015271;28;20882;-63
2024/03/31 09:07:35;;;;;;;11.13;2.70;;;15.60;98.00;;;;;;5014949;28;20519;-63
2024/03/31 09:10:04;;;;;;;11.97;2.80;;;15.50;98.00;;;;;;5015077;28;20459;-63
2024/03/31 09:12:31;;;;;;;18.03;3.67;;;15.40;98.00;;;;;;5014862;28;20451;-63
2024/03/31 09:14:58;;;;;;;14.07;3.70;;;15.40;98.00;;;;;;5014777;28;20463;-63
2024/03/31 09:17:25;;;;;;;10.83;4.03;;;15.50;98.00;;;;;;5014867;28;20452;-63
2024/03/31 09:19:52;;;;;;;15.77;3.07;;;15.60;98.00;;;;;;5014401;28;20463;-63
2024/03/31 09:22:19;;;;;;;19.20;3.60;;;15.80;98.00;;;;;;5014877;28;20539;-63
2024/03/31 09:24:48;;;;;;;9.03;2.93;;;15.80;98.00;;;;;;5014588;28;20972;-63
2024/03/31 09:27:15;;;;;;;12.50;3.00;;;15.80;98.00;;;;;;5014815;28;20588;-63
2024/03/31 09:29:43;;;;;;;10.63;2.70;;;15.60;98.00;;;;;;5014541;28;20483;-63
2024/03/31 09:32:11;;;;;;;18.80;3.00;;;15.50;98.00;;;;;;5014543;28;20459;-63
2024/03/31 09:34:43;;;;;;;16.07;2.57;;;15.50;98.00;;;;;;5014532;28;20487;-63
2024/03/31 09:37:09;;;;;;;5.43;2.27;;;15.70;98.00;;;;;;5014489;28;20451;-63
2024/03/31 09:39:40;;;;;;;9.00;2.70;;;16.10;98.00;;;;;;5014451;28;20459;-63
2024/03/31 09:42:08;;;;;;;11.67;2.97;;;16.50;98.00;;;;;;5014704;28;20447;-63
2024/03/31 09:44:38;;;;;;;16.17;3.20;;;16.80;98.00;;;;;;5014495;28;20460;-63
2024/03/31 09:47:12;;;;;;;15.63;2.93;;;17.00;98.00;;;;;;5014253;28;21032;-63
2024/03/31 09:49:44;;;;;;;8.43;2.50;;;17.20;98.00;;;;;;5014355;28;20459;-63
2024/03/31 09:52:15;;;;;;;15.23;3.33;;;17.40;98.00;;;;;;5013998;28;20470;-63
2024/03/31 09:54:47;;;;;;;17.53;3.50;;;17.40;98.00;;;;;;5014355;28;20459;-63
2024/03/31 09:57:15;;;;;;;8.57;2.60;;;17.30;98.00;;;;;;5014236;28;20938;-63
2024/03/31 09:59:50;;;;;;;18.60;3.60;;;17.20;98.00;;;;;;5013994;28;20545;-63
2024/03/31 10:02:17;;;;;;;19.73;3.10;;;17.10;98.00;;;;;;5014325;28;20463;-63
2024/03/31 10:04:50;;;;;;;11.00;3.93;;;17.20;98.00;;;;;;5014295;28;20562;-63
2024/03/31 10:07:17;;;;;;;9.23;2.53;;;17.40;98.00;;;;;;5014118;28;20629;-63
2024/03/31 10:09:50;;;;;;;15.03;3.17;;;17.50;98.00;;;;;;5013946;28;20810;-63
2024/03/31 10:12:17;;;;;;;17.17;3.47;;;17.80;98.00;;;;;;5012962;28;20464;-63
2024/03/31 10:14:47;;;;;;;13.43;3.07;;;17.80;98.00;;;;;;5014189;28;20467;-63
2024/03/31 10:17:14;;;;;;;17.70;3.17;;;17.70;98.00;;;;;;5014264;28;20455;-63
2024/03/31 10:19:42;;;;;;;17.07;3.10;;;17.60;98.00;;;;;;5013723;28;20467;-63
2024/03/31 10:22:09;;;;;;;21.80;3.20;;;17.70;98.00;;;;;;5013708;28;20524;-63
2024/03/31 10:24:37;;;;;;;22.47;3.40;;;17.90;98.00;;;;;;5013480;28;20522;-63
2024/03/31 10:27:05;;;;;;;7.70;2.60;;;17.90;98.00;;;;;;5013541;28;20455;-63
2024/03/31 10:29:33;;;;;;;16.93;3.63;;;18.00;98.00;;;;;;5013425;28;20487;-63
2024/03/31 10:31:59;;;;;;;15.03;2.83;;;18.00;98.00;;;;;;5013648;28;20451;-63
2024/03/31 10:34:26;;;;;;;14.83;3.10;;;18.10;98.00;;;;;;5013668;28;20474;-63
2024/03/31 10:36:54;;;;;;;8.90;2.80;;;18.30;98.00;;;;;;5013273;28;20455;-63
2024/03/31 10:39:24;;;;;;;15.27;3.13;;;18.40;98.00;;;;;;5013224;28;20559;-63
2024/03/31 10:41:50;;;;;;;31.90;3.27;;;18.40;98.00;;;;;;5013170;28;20463;-63
2024/03/31 10:44:21;;;;;;;8.60;2.70;;;18.30;98.00;;;;;;5013338;28;20463;-63
2024/03/31 10:46:48;;;;;;;14.30;2.70;;;18.30;98.00;;;;;;5013187;28;20459;-63
2024/03/31 10:49:15;;;;;;;8.93;2.80;;;18.40;98.00;;;;;;5012991;28;20510;-63
2024/03/31 10:51:42;;;;;;;17.53;3.23;;;18.60;98.00;;;;;;5013020;28;20513;-63
2024/03/31 10:54:28;;;;;;;9.97;2.90;;;18.60;98.00;;;;;;5013231;28;20529;-63
2024/03/31 10:57:02;;;;;;;22.17;3.57;;;19.20;98.00;;;;;;5013147;28;20972;-63
2024/03/31 10:59:32;;;;;;;15.87;2.80;;;19.80;98.00;;;;;;5012655;28;20471;-63
2024/03/31 11:02:09;;;;;;;19.23;3.30;;;20.20;98.00;;;;;;5012998;28;20459;-63
2024/03/31 11:04:36;;;;;;;12.40;2.97;;;20.20;98.00;;;;;;5012855;28;20467;-63
2024/03/31 11:07:06;;;;;;;11.17;2.80;;;19.90;98.00;;;;;;5012796;28;20466;-63
2024/03/31 11:09:33;;;;;;;13.10;3.10;;;19.70;98.00;;;;;;5012855;28;20468;-63
2024/03/31 11:12:00;;;;;;;14.57;3.03;;;19.50;98.00;;;;;;5012973;28;20519;-63
2024/03/31 11:14:27;;;;;;;17.23;2.97;;;19.30;98.00;;;;;;5010708;28;20459;-63
2024/03/31 11:16:55;;;;;;;7.37;2.43;;;19.30;98.00;;;;;;5012402;28;20451;-63
2024/03/31 11:19:24;;;;;;;18.40;3.20;;;19.10;98.00;;;;;;5012515;28;20470;-63
2024/03/31 11:21:55;;;;;;;7.87;2.80;;;19.00;98.00;;;;;;5012635;28;20459;-63
2024/03/31 11:24:22;;;;;;;9.27;2.70;;;18.80;98.00;;;;;;5012830;28;20506;-63
2024/03/31 11:26:51;;;;;;;18.87;3.50;;;18.60;98.00;;;;;;5012498;28;20462;-63
2024/03/31 11:29:20;;;;;;;11.87;3.53;;;18.40;98.00;;;;;;5012733;28;21116;-63
2024/03/31 11:31:47;;;;;;;13.93;2.93;;;18.20;98.00;;;;;;5012603;28;20448;-63
2024/03/31 11:34:24;;;;;;;16.07;2.80;;;18.20;98.00;;;;;;5012749;28;21096;-63
2024/03/31 11:36:51;;;;;;;12.07;2.73;;;18.10;98.00;;;;;;5012543;28;20455;-63
2024/03/31 11:39:18;;;;;;;12.97;3.00;;;18.00;98.00;;;;;;5012381;28;21307;-63
2024/03/31 11:41:45;;;;;;;14.13;3.67;;;18.00;98.00;;;;;;5012369;28;20509;-63
2024/03/31 11:44:12;;;;;;;14.00;3.03;;;18.00;98.00;;;;;;5012518;28;20474;-63
2024/03/31 11:46:39;;;;;;;9.40;2.97;;;18.00;98.00;;;;;;5012355;28;20474;-63
2024/03/31 11:49:07;;;;;;;19.73;3.80;;;17.90;98.00;;;;;;5012292;28;20519;-63
2024/03/31 11:51:37;;;;;;;14.13;2.83;;;17.90;98.00;;;;;;5012288;28;20455;-63
2024/03/31 11:54:06;;;;;;;10.40;3.70;;;17.90;98.00;;;;;;5012330;28;20460;-63
2024/03/31 11:56:32;;;;;;;17.80;3.83;;;18.00;98.00;;;;;;5012306;28;20456;-63
2024/03/31 11:59:00;;;;;;;13.63;3.50;;;18.00;98.00;;;;;;5012135;28;20471;-63
2024/03/31 12:01:27;;;;;;;10.20;2.70;;;18.20;98.00;;;;;;5012307;28;20440;-61
2024/03/31 12:03:54;;;;;;;7.93;2.80;;;18.40;98.00;;;;;;5012161;28;20556;-63
2024/03/31 12:06:24;;;;;;;24.33;3.67;;;18.60;98.00;;;;;;5012272;28;20459;-63
2024/03/31 12:08:53;;;;;;;19.00;3.40;;;18.80;98.00;;;;;;5012142;28;21075;-62
2024/03/31 12:11:19;;;;;;;9.63;2.43;;;18.90;98.00;;;;;;5011936;28;20452;-63
2024/03/31 12:13:48;;;;;;;16.77;3.83;;;19.00;98.00;;;;;;5012507;28;20807;-62
2024/03/31 12:16:15;;;;;;;16.27;3.37;;;19.20;98.00;;;;;;5012008;28;20510;-62
2024/03/31 12:18:42;;;;;;;9.83;2.83;;;19.80;98.00;;;;;;5011716;28;20460;-62
2024/03/31 12:21:08;;;;;;;15.63;3.40;;;20.40;98.00;;;;;;5011996;28;20486;-62
2024/03/31 12:23:36;;;;;;;20.17;3.43;;;20.80;98.00;;;;;;5012008;28;20467;-63
2024/03/31 12:26:04;;;;;;;13.63;3.47;;;21.10;98.00;;;;;;5012050;28;20923;-63
2024/03/31 12:28:32;;;;;;;13.27;3.33;;;21.20;98.00;;;;;;5011593;28;20570;-63
2024/03/31 12:30:59;;;;;;;9.07;3.10;;;21.40;98.00;;;;;;5011589;28;20452;-63
2024/03/31 12:33:26;;;;;;;13.80;3.43;;;21.40;98.00;;;;;;5014965;28;20467;-63
2024/03/31 12:35:59;;;;;;;9.30;2.90;;;21.20;98.00;;;;;;5015801;28;20779;-62
2024/03/31 12:38:26;;;;;;;13.00;3.23;;;21.10;98.00;;;;;;5014595;28;20876;-63
2024/03/31 12:40:53;;;;;;;10.70;2.57;;;20.80;98.00;;;;;;5014929;28;20460;-65
2024/03/31 12:43:25;;;;;;;18.10;3.20;;;20.60;98.00;;;;;;5014583;28;20486;-63
2024/03/31 12:45:53;;;;;;;21.53;3.70;;;20.40;98.00;;;;;;5015531;28;20854;-63
2024/03/31 12:48:22;;;;;;;9.97;2.47;;;20.10;98.00;;;;;;5014029;28;20490;-63
2024/03/31 12:50:49;;;;;;;11.77;2.90;;;19.90;98.00;;;;;;5015237;28;20459;-63